createdAt,value
2017-11-20T00:01:46.307Z,93.60
2017-11-20T00:04:14.545Z,93.90
2017-11-20T00:06:42.775Z,94.00
2017-11-20T00:09:11.036Z,93.30
2017-11-20T00:11:39.280Z,93.50
2017-11-20T00:14:07.516Z,93.60
2017-11-20T00:16:35.773Z,93.70
2017-11-20T00:19:04.009Z,94.00
2017-11-20T00:21:33.000Z,94.30
2017-11-20T00:24:02.639Z,93.80
2017-11-20T00:26:30.875Z,93.80
2017-11-20T00:28:59.111Z,94.00
2017-11-20T00:31:27.368Z,94.40
2017-11-20T00:33:55.612Z,94.40
2017-11-20T00:36:23.850Z,94.70
2017-11-20T00:38:52.108Z,94.90
2017-11-20T00:41:20.349Z,95.00
2017-11-20T00:43:49.021Z,94.90
2017-11-20T00:46:18.664Z,94.70
2017-11-20T00:48:46.903Z,94.70
2017-11-20T00:51:15.139Z,94.60
2017-11-20T00:53:43.395Z,95.30
2017-11-20T00:56:11.631Z,94.90
2017-11-20T00:58:39.868Z,94.70
2017-11-20T01:01:08.127Z,94.70
2017-11-20T01:03:36.361Z,94.90
2017-11-20T01:06:05.382Z,94.60
2017-11-20T01:08:33.788Z,94.50
2017-11-20T01:11:02.019Z,94.70
2017-11-20T01:13:30.255Z,94.70
2017-11-20T01:15:58.520Z,94.60
2017-11-20T01:18:26.767Z,94.90
2017-11-20T01:20:55.003Z,94.90
2017-11-20T01:23:23.263Z,95.00
2017-11-20T01:25:51.503Z,94.80
2017-11-20T01:28:19.746Z,94.90
2017-11-20T01:30:49.184Z,94.40
2017-11-20T01:33:17.419Z,94.40
2017-11-20T01:35:45.656Z,94.60
2017-11-20T01:38:13.944Z,94.80
2017-11-20T01:40:42.183Z,94.60
2017-11-20T01:43:10.426Z,94.50
2017-11-20T01:45:39.643Z,94.30
2017-11-20T01:48:07.880Z,94.20
2017-11-20T01:50:36.118Z,94.30
2017-11-20T01:53:04.707Z,94.30
2017-11-20T01:55:32.944Z,94.80
2017-11-20T01:58:01.952Z,94.50
2017-11-20T02:00:30.212Z,94.50
2017-11-20T02:03:00.962Z,94.30
2017-11-20T02:05:29.198Z,93.70
2017-11-20T02:07:57.459Z,93.50
2017-11-20T02:10:25.700Z,93.50
2017-11-20T02:12:53.936Z,93.70
2017-11-20T02:15:22.507Z,93.60
2017-11-20T02:17:50.747Z,93.10
2017-11-20T02:20:18.980Z,92.40
2017-11-20T02:22:47.999Z,92.50
2017-11-20T02:25:16.241Z,92.50
2017-11-20T02:27:44.488Z,92.40
2017-11-20T02:30:12.747Z,92.30
2017-11-20T02:32:40.981Z,92.30
2017-11-20T02:35:09.266Z,92.60
2017-11-20T02:37:37.720Z,92.60
2017-11-20T02:40:05.951Z,92.10
2017-11-20T02:42:34.187Z,92.80
2017-11-20T02:45:02.444Z,92.40
2017-11-20T02:47:30.892Z,91.00
2017-11-20T02:49:59.124Z,91.40
2017-11-20T02:52:28.148Z,91.00
2017-11-20T02:54:56.391Z,90.90
2017-11-20T02:57:24.625Z,91.50
2017-11-20T02:59:53.289Z,90.80
2017-11-20T03:02:21.527Z,90.70
2017-11-20T03:04:49.755Z,90.60
2017-11-20T03:07:18.015Z,90.60
2017-11-20T03:09:46.255Z,90.60
2017-11-20T03:12:14.502Z,90.10
2017-11-20T03:14:42.766Z,90.30
2017-11-20T03:17:11.008Z,90.40
2017-11-20T03:19:39.245Z,90.40
2017-11-20T03:22:07.562Z,90.20
2017-11-20T03:24:35.821Z,90.10
2017-11-20T03:27:04.815Z,90.00
2017-11-20T03:29:33.842Z,90.10
2017-11-20T03:32:02.084Z,90.00
2017-11-20T03:34:30.325Z,90.00
2017-11-20T03:36:58.586Z,90.50
2017-11-20T03:39:26.818Z,90.90
2017-11-20T03:41:55.816Z,90.20
2017-11-20T03:44:24.164Z,90.20
2017-11-20T03:46:52.394Z,90.20
2017-11-20T03:49:20.897Z,90.20
2017-11-20T03:51:49.156Z,90.00
2017-11-20T03:54:17.391Z,90.50
2017-11-20T03:56:45.627Z,90.00
2017-11-20T03:59:13.883Z,90.20
2017-11-20T04:01:42.119Z,88.90
2017-11-20T04:04:11.158Z,88.60
2017-11-20T04:06:39.612Z,88.40
2017-11-20T04:09:07.848Z,87.90
2017-11-20T04:11:36.087Z,88.20
2017-11-20T04:14:04.346Z,87.90
2017-11-20T04:16:32.596Z,88.00
2017-11-20T04:19:00.833Z,87.10
2017-11-20T04:21:29.091Z,88.00
2017-11-20T04:23:57.326Z,87.10
2017-11-20T04:26:25.571Z,88.20
2017-11-20T04:28:53.883Z,88.30
2017-11-20T04:31:22.123Z,88.80
2017-11-20T04:33:50.358Z,88.20
2017-11-20T04:36:18.628Z,88.60
2017-11-20T04:38:46.859Z,88.70
2017-11-20T04:41:15.095Z,90.10
2017-11-20T04:43:43.363Z,88.50
2017-11-20T04:46:11.613Z,89.10
2017-11-20T04:48:39.859Z,88.30
2017-11-20T04:51:08.883Z,84.90
2017-11-20T04:53:37.894Z,87.50
2017-11-20T04:56:06.127Z,87.50
2017-11-20T04:58:34.399Z,85.80
2017-11-20T05:01:02.640Z,85.30
2017-11-20T05:03:30.879Z,84.90
2017-11-20T05:05:59.148Z,84.00
2017-11-20T05:08:27.387Z,84.00
2017-11-20T05:10:55.672Z,82.80
2017-11-20T05:13:24.538Z,83.70
2017-11-20T05:15:52.780Z,82.20
2017-11-20T05:18:21.027Z,81.40
2017-11-20T05:20:49.334Z,82.10
2017-11-20T05:23:18.337Z,84.60
2017-11-20T05:25:47.340Z,85.80
2017-11-20T05:28:15.725Z,85.90
2017-11-20T05:30:44.716Z,85.60
2017-11-20T05:33:12.992Z,85.60
2017-11-20T05:35:41.795Z,86.50
2017-11-20T05:38:10.034Z,86.70
2017-11-20T05:40:38.276Z,85.50
2017-11-20T05:43:06.547Z,84.10
2017-11-20T05:45:34.784Z,85.00
2017-11-20T05:48:03.032Z,85.50
2017-11-20T05:50:32.065Z,85.00
2017-11-20T05:53:00.716Z,85.00
2017-11-20T05:55:29.720Z,84.80
2017-11-20T05:57:58.888Z,84.80
2017-11-20T06:00:27.131Z,84.70
2017-11-20T06:02:55.381Z,84.00
2017-11-20T06:05:23.636Z,82.50
2017-11-20T06:07:51.868Z,84.50
2017-11-20T06:10:20.107Z,83.20
2017-11-20T06:12:48.367Z,83.00
2017-11-20T06:15:17.382Z,82.10
2017-11-20T06:17:45.603Z,82.00
2017-11-20T06:20:14.463Z,80.40
2017-11-20T06:22:42.701Z,81.40
2017-11-20T06:25:10.947Z,81.40
2017-11-20T06:27:39.212Z,82.60
2017-11-20T06:30:07.459Z,83.60
2017-11-20T06:32:35.687Z,84.30
2017-11-20T06:35:03.953Z,84.50
2017-11-20T06:37:32.208Z,83.50
2017-11-20T06:40:00.445Z,83.20
2017-11-20T06:42:29.075Z,82.60
2017-11-20T06:44:57.299Z,82.30
2017-11-20T06:47:26.303Z,84.20
2017-11-20T06:49:55.322Z,82.10
2017-11-20T06:52:23.590Z,82.00
2017-11-20T06:54:52.039Z,82.00
2017-11-20T06:57:21.063Z,80.90
2017-11-20T06:59:49.312Z,80.80
2017-11-20T07:02:17.555Z,81.10
2017-11-20T07:04:46.262Z,81.60
2017-11-20T07:07:15.435Z,81.20
2017-11-20T07:09:43.671Z,82.30
2017-11-20T07:12:11.955Z,82.00
2017-11-20T07:14:40.191Z,81.20
2017-11-20T07:17:08.434Z,81.40
2017-11-20T07:19:36.699Z,80.60
2017-11-20T07:22:04.939Z,81.50
2017-11-20T07:24:33.939Z,81.80
2017-11-20T07:27:02.673Z,81.70
2017-11-20T07:29:42.623Z,82.00
2017-11-20T07:32:10.879Z,81.20
2017-11-20T07:34:50.824Z,82.50
2017-11-20T07:37:30.724Z,82.50
2017-11-20T07:40:10.660Z,82.80
2017-11-20T07:42:39.087Z,82.50
2017-11-20T07:45:07.323Z,81.50
2017-11-20T07:47:35.559Z,81.50
2017-11-20T07:50:03.815Z,81.70
2017-11-20T07:52:32.045Z,81.60
2017-11-20T07:55:00.759Z,81.40
2017-11-20T07:57:29.787Z,80.20
2017-11-20T07:59:58.022Z,80.20
2017-11-20T08:02:26.262Z,79.30
2017-11-20T08:04:54.862Z,79.30
2017-11-20T08:07:23.163Z,80.40
2017-11-20T08:09:51.404Z,80.60
2017-11-20T08:12:19.656Z,79.60
2017-11-20T08:14:47.890Z,80.20
2017-11-20T08:17:16.895Z,80.30
2017-11-20T08:19:45.918Z,79.10
2017-11-20T08:22:14.158Z,78.90
2017-11-20T08:24:43.155Z,79.40
2017-11-20T08:27:12.271Z,79.10
2017-11-20T08:29:40.523Z,78.10
2017-11-20T08:32:08.776Z,78.70
2017-11-20T08:34:37.030Z,79.60
2017-11-20T08:37:05.276Z,77.70
2017-11-20T08:39:34.135Z,77.50
2017-11-20T08:42:01.804Z,76.60
2017-11-20T08:44:30.807Z,76.40
2017-11-20T08:46:59.815Z,77.10
2017-11-20T08:49:28.523Z,77.00
2017-11-20T08:51:56.764Z,76.70
2017-11-20T08:54:24.999Z,74.40
2017-11-20T08:56:53.588Z,77.60
2017-11-20T08:59:21.829Z,77.20
2017-11-20T09:01:50.063Z,75.60
2017-11-20T09:04:19.090Z,75.80
2017-11-20T09:06:47.326Z,76.30
2017-11-20T09:09:15.568Z,75.40
2017-11-20T09:11:44.239Z,75.10
2017-11-20T09:14:12.474Z,74.70
2017-11-20T09:16:40.709Z,75.00
2017-11-20T09:19:11.169Z,75.60
2017-11-20T09:21:39.409Z,74.30
2017-11-20T09:24:07.647Z,74.50
2017-11-20T09:26:35.923Z,74.10
2017-11-20T09:29:04.147Z,73.50
2017-11-20T09:31:32.374Z,73.90
2017-11-20T09:34:00.893Z,73.50
2017-11-20T09:36:29.126Z,74.10
2017-11-20T09:38:57.371Z,74.20
2017-11-20T09:41:25.633Z,72.20
2017-11-20T09:43:53.867Z,72.60
2017-11-20T09:46:22.112Z,72.70
2017-11-20T09:48:50.379Z,73.90
2017-11-20T09:51:18.619Z,73.20
2017-11-20T09:53:46.855Z,73.70
2017-11-20T09:56:15.167Z,73.80
2017-11-20T09:58:43.711Z,72.90
2017-11-20T10:01:12.706Z,72.60
2017-11-20T10:03:41.737Z,71.70
2017-11-20T10:06:09.979Z,71.70
2017-11-20T10:08:38.220Z,73.30
2017-11-20T10:11:06.482Z,72.90
2017-11-20T10:13:34.731Z,73.30
2017-11-20T10:16:04.179Z,71.80
2017-11-20T10:18:32.738Z,72.30
2017-11-20T10:21:00.976Z,71.50
2017-11-20T10:23:29.983Z,72.50
2017-11-20T10:25:58.253Z,72.50
2017-11-20T10:28:26.502Z,73.20
2017-11-20T10:30:54.732Z,71.50
2017-11-20T10:33:22.994Z,72.20
2017-11-20T10:35:51.235Z,71.70
2017-11-20T10:38:19.519Z,71.60
2017-11-20T10:40:48.041Z,72.20
2017-11-20T10:43:16.280Z,71.40
2017-11-20T10:45:44.522Z,71.40
2017-11-20T10:48:12.779Z,72.10
2017-11-20T10:50:41.011Z,71.00
2017-11-20T10:53:09.252Z,71.60
2017-11-20T10:55:37.525Z,71.90
2017-11-20T10:58:05.766Z,73.20
2017-11-20T11:00:34.419Z,72.10
2017-11-20T11:03:03.728Z,72.20
2017-11-20T11:05:32.742Z,71.20
2017-11-20T11:08:00.980Z,71.20
2017-11-20T11:10:29.336Z,70.80
2017-11-20T11:12:57.572Z,70.80
2017-11-20T11:15:25.803Z,70.20
2017-11-20T11:17:54.096Z,70.50
2017-11-20T11:20:22.340Z,70.60
2017-11-20T11:22:50.572Z,70.40
2017-11-20T11:25:18.891Z,68.90
2017-11-20T11:27:47.123Z,68.90
2017-11-20T11:30:15.367Z,69.80
2017-11-20T11:32:43.628Z,69.20
2017-11-20T11:35:11.855Z,68.70
2017-11-20T11:37:40.099Z,68.60
2017-11-20T11:40:08.359Z,68.80
2017-11-20T11:42:36.598Z,69.80
2017-11-20T11:45:04.834Z,70.00
2017-11-20T11:47:33.419Z,71.30
2017-11-20T11:50:01.671Z,71.00
2017-11-20T11:52:29.910Z,70.70
2017-11-20T11:54:58.187Z,68.90
2017-11-20T11:57:26.428Z,68.50
2017-11-20T11:59:54.687Z,68.90
2017-11-20T12:02:23.308Z,69.50
2017-11-20T12:04:51.544Z,70.50
2017-11-20T12:07:19.778Z,69.80
2017-11-20T12:09:48.207Z,70.10
2017-11-20T12:12:16.456Z,70.90
2017-11-20T12:14:44.686Z,72.00
2017-11-20T12:17:12.960Z,69.50
2017-11-20T12:19:41.951Z,69.00
2017-11-20T12:22:11.064Z,68.80
2017-11-20T12:24:39.314Z,68.70
2017-11-20T12:27:08.316Z,70.50
2017-11-20T12:29:37.323Z,70.70
2017-11-20T12:32:06.002Z,70.70
2017-11-20T12:34:35.007Z,71.10
2017-11-20T12:37:03.246Z,70.90
2017-11-20T12:39:31.516Z,72.10
2017-11-20T12:41:59.974Z,72.00
2017-11-20T12:44:28.215Z,73.00
2017-11-20T12:46:56.483Z,71.90
2017-11-20T12:49:24.972Z,72.00
2017-11-20T12:51:53.207Z,71.90
2017-11-20T12:54:21.751Z,71.90
2017-11-20T12:56:50.033Z,72.80
2017-11-20T12:59:18.274Z,73.50
2017-11-20T13:01:46.527Z,73.70
2017-11-20T13:04:15.787Z,76.40
2017-11-20T13:06:44.035Z,74.70
2017-11-20T13:09:12.292Z,74.20
2017-11-20T13:11:41.294Z,72.90
2017-11-20T13:14:10.304Z,72.70
2017-11-20T13:16:38.762Z,72.70
2017-11-20T13:19:07.006Z,72.80
2017-11-20T13:21:35.240Z,75.00
2017-11-20T13:24:03.513Z,75.60
2017-11-20T13:26:31.756Z,74.50
2017-11-20T13:28:59.997Z,77.00
2017-11-20T13:31:28.251Z,77.50
2017-11-20T13:33:56.487Z,76.60
2017-11-20T13:36:24.726Z,77.60
2017-11-20T13:38:53.351Z,78.10
2017-11-20T13:41:21.588Z,78.30
2017-11-20T13:43:49.823Z,76.60
2017-11-20T13:46:18.083Z,77.10
2017-11-20T13:48:46.319Z,77.20
2017-11-20T13:51:14.554Z,77.60
2017-11-20T13:53:42.816Z,78.10
2017-11-20T13:56:11.835Z,78.20
2017-11-20T13:58:40.065Z,78.20
2017-11-20T14:01:08.687Z,78.70
2017-11-20T14:03:36.938Z,79.10
2017-11-20T14:09:04.634Z,78.30
2017-11-20T14:11:32.891Z,77.70
2017-11-20T14:14:01.901Z,78.80
2017-11-20T14:16:30.134Z,78.80
2017-11-20T14:18:58.760Z,80.00
2017-11-20T14:21:27.004Z,80.80
2017-11-20T14:23:55.239Z,81.50
2017-11-20T14:26:23.509Z,82.60
2017-11-20T14:28:51.740Z,80.10
2017-11-20T14:31:19.967Z,79.30
2017-11-20T14:33:48.235Z,80.40
2017-11-20T14:36:16.495Z,82.20
2017-11-20T14:38:44.731Z,82.60
2017-11-20T14:41:13.060Z,82.90
2017-11-20T14:43:41.295Z,82.30
2017-11-20T14:46:09.534Z,83.00
2017-11-20T14:48:40.644Z,80.80
2017-11-20T14:51:23.098Z,77.80
2017-11-20T14:53:51.351Z,77.90
2017-11-20T14:56:19.587Z,79.70
2017-11-20T14:58:47.824Z,79.40
2017-11-20T15:01:17.015Z,81.00
2017-11-20T15:03:45.251Z,80.80
2017-11-20T15:06:13.727Z,81.10
2017-11-20T15:08:42.759Z,80.00
2017-11-20T15:11:10.991Z,79.60
2017-11-20T15:13:39.222Z,78.60
2017-11-20T15:16:07.483Z,79.20
2017-11-20T15:18:35.718Z,78.00
2017-11-20T15:21:04.100Z,79.20
2017-11-20T15:23:32.854Z,79.30
2017-11-20T15:26:01.082Z,80.10
2017-11-20T15:28:30.083Z,79.80
2017-11-20T15:30:58.668Z,79.80
2017-11-20T15:33:26.915Z,81.00
2017-11-20T15:35:55.963Z,80.10
2017-11-20T15:38:24.227Z,80.00
2017-11-20T15:40:52.458Z,78.90
2017-11-20T15:43:20.692Z,77.80
2017-11-20T15:45:49.014Z,77.30
2017-11-20T15:48:17.252Z,78.30
2017-11-20T15:50:45.495Z,80.00
2017-11-20T15:53:14.207Z,80.40
2017-11-20T15:55:42.459Z,81.30
2017-11-20T15:58:10.855Z,81.20
2017-11-20T16:00:39.120Z,80.60
2017-11-20T16:03:07.371Z,79.30
2017-11-20T16:05:36.488Z,79.20
2017-11-20T16:08:04.972Z,79.20
2017-11-20T16:10:33.203Z,80.90
2017-11-20T16:13:01.443Z,82.60
2017-11-20T16:15:29.703Z,82.50
2017-11-20T16:17:57.992Z,85.10
2017-11-20T16:20:26.236Z,83.40
2017-11-20T16:22:54.517Z,83.90
2017-11-20T16:25:22.742Z,82.00
2017-11-20T16:27:50.979Z,82.40
2017-11-20T16:30:19.584Z,83.30
2017-11-20T16:32:47.823Z,83.30
2017-11-20T16:35:16.067Z,84.60
2017-11-20T16:37:44.325Z,84.40
2017-11-20T16:40:12.567Z,84.40
2017-11-20T16:42:40.799Z,84.80
2017-11-20T16:45:09.053Z,83.40
2017-11-20T16:47:37.291Z,84.00
2017-11-20T16:50:05.519Z,82.70
2017-11-20T16:52:34.071Z,83.30
2017-11-20T16:55:02.315Z,82.60
2017-11-20T16:57:42.411Z,82.80
2017-11-20T17:00:23.334Z,84.30
2017-11-20T17:03:12.064Z,86.60
2017-11-20T17:05:40.303Z,86.40
2017-11-20T17:08:08.823Z,85.40
2017-11-20T17:10:37.207Z,86.80
2017-11-20T17:13:05.451Z,87.30
2017-11-20T17:15:33.683Z,85.90
2017-11-20T17:18:02.709Z,87.10
2017-11-20T17:20:30.976Z,87.10
2017-11-20T17:25:33.975Z,90.50
2017-11-20T17:28:02.219Z,88.30
2017-11-20T17:30:30.455Z,90.70
2017-11-20T17:32:59.163Z,91.50
2017-11-20T17:35:27.459Z,90.50
2017-11-20T17:37:55.679Z,91.40
2017-11-20T17:40:23.951Z,90.90
2017-11-20T17:42:52.198Z,91.20
2017-11-20T17:45:20.445Z,91.30
2017-11-20T17:47:48.713Z,91.30
2017-11-20T17:50:16.964Z,91.00
2017-11-20T17:52:45.212Z,90.40
2017-11-20T17:55:14.561Z,89.70
2017-11-20T17:57:42.861Z,89.60
2017-11-20T18:00:12.166Z,91.90
2017-11-20T18:02:40.571Z,91.30
2017-11-20T18:05:10.745Z,91.80
2017-11-20T18:07:39.126Z,91.70
2017-11-20T18:10:07.424Z,91.00
2017-11-20T18:12:35.651Z,91.10
2017-11-20T18:15:03.959Z,91.00
2017-11-20T18:17:32.291Z,91.30
2017-11-20T18:20:00.798Z,91.90
2017-11-20T18:22:29.095Z,91.70
2017-11-20T18:24:57.359Z,92.70
2017-11-20T18:27:26.785Z,93.70
2017-11-20T18:29:55.023Z,93.40
2017-11-20T18:32:23.357Z,93.30
2017-11-20T18:34:51.598Z,93.20
2017-11-20T18:37:19.823Z,93.30
2017-11-20T18:39:48.265Z,93.90
2017-11-20T18:42:16.488Z,93.30
2017-11-20T18:44:45.533Z,93.70
2017-11-20T18:47:14.074Z,93.70
2017-11-20T18:49:42.320Z,93.10
2017-11-20T18:52:10.576Z,93.40
2017-11-20T18:54:38.846Z,92.90
2017-11-20T18:57:07.956Z,92.70
2017-11-20T18:59:36.211Z,92.70
2017-11-20T19:02:16.380Z,92.90
2017-11-20T19:04:56.420Z,93.00
2017-11-20T19:07:36.456Z,93.20
2017-11-20T19:10:04.964Z,93.60
2017-11-20T19:12:33.203Z,93.50
2017-11-20T19:15:01.463Z,93.90
2017-11-20T19:17:29.700Z,94.20
2017-11-20T19:19:57.947Z,94.40
2017-11-20T19:22:26.287Z,94.80
2017-11-20T19:24:54.521Z,95.00
2017-11-20T19:27:22.760Z,94.80
2017-11-20T19:29:51.032Z,94.40
2017-11-20T19:32:19.282Z,94.20
2017-11-20T19:34:47.523Z,93.70
2017-11-20T19:37:15.783Z,93.60
2017-11-20T19:39:44.026Z,93.20
2017-11-20T19:42:12.268Z,94.10
2017-11-20T19:44:40.846Z,93.10
2017-11-20T19:47:09.084Z,94.30
2017-11-20T19:49:37.403Z,94.30
2017-11-20T19:52:05.672Z,93.50
2017-11-20T19:54:33.919Z,94.30
2017-11-20T19:57:02.164Z,95.20
2017-11-20T19:59:30.435Z,95.40
2017-11-20T20:01:58.688Z,94.80
2017-11-20T20:04:26.924Z,94.30
2017-11-20T20:06:55.824Z,95.40
2017-11-20T20:09:24.083Z,94.80
2017-11-20T20:11:52.636Z,94.80
2017-11-20T20:14:30.633Z,94.10
2017-11-20T20:17:05.412Z,94.80
2017-11-20T20:19:33.683Z,93.90
2017-11-20T20:22:01.936Z,94.70
2017-11-20T20:24:30.174Z,94.50
2017-11-20T20:26:58.855Z,93.90
2017-11-20T20:29:27.101Z,93.10
2017-11-20T20:31:55.348Z,94.70
2017-11-20T20:34:23.620Z,95.30
2017-11-20T20:36:52.639Z,95.50
2017-11-20T20:39:20.888Z,95.40
2017-11-20T20:41:49.160Z,95.60
2017-11-20T20:44:17.404Z,95.50
2017-11-20T20:46:45.642Z,95.50
2017-11-20T20:49:14.091Z,94.90
2017-11-20T20:52:03.640Z,95.40
2017-11-20T20:54:31.927Z,94.90
2017-11-20T20:57:00.173Z,94.90
2017-11-20T20:59:28.578Z,95.50
2017-11-20T21:01:56.843Z,95.30
2017-11-20T21:04:25.085Z,95.80
2017-11-20T21:06:56.240Z,95.70
2017-11-20T21:09:24.712Z,95.70
2017-11-20T21:11:58.732Z,96.00
2017-11-20T21:14:27.112Z,95.70
2017-11-20T21:16:55.352Z,95.40
2017-11-20T21:19:23.598Z,94.90
2017-11-20T21:21:51.855Z,94.90
2017-11-20T21:24:20.125Z,94.70
2017-11-20T21:26:48.352Z,95.00
2017-11-20T21:29:16.956Z,95.70
2017-11-20T21:31:45.960Z,95.50
2017-11-20T21:34:14.217Z,95.50
2017-11-20T21:36:43.241Z,96.50
2017-11-20T21:39:11.482Z,96.40
2017-11-20T21:41:40.492Z,95.90
2017-11-20T21:44:08.752Z,95.90
2017-11-20T21:46:36.996Z,96.80
2017-11-20T21:49:05.232Z,96.80
2017-11-20T21:51:33.832Z,96.40
2017-11-20T21:54:02.068Z,96.00
2017-11-20T21:56:30.346Z,96.10
2017-11-20T21:58:58.596Z,97.10
2017-11-20T22:01:26.837Z,97.30
2017-11-20T22:03:55.089Z,96.80
2017-11-20T22:06:23.449Z,96.80
2017-11-20T22:08:57.279Z,97.10
2017-11-20T22:11:25.651Z,97.00
2017-11-20T22:13:54.112Z,97.10
2017-11-20T22:16:23.128Z,97.10
2017-11-20T22:18:51.388Z,97.10
2017-11-20T22:21:19.628Z,97.20
2017-11-20T22:23:47.868Z,96.60
2017-11-20T22:26:17.235Z,96.70
2017-11-20T22:28:46.256Z,97.70
2017-11-20T22:31:14.500Z,97.60
2017-11-20T22:33:43.049Z,98.40
2017-11-20T22:36:11.288Z,98.50
2017-11-20T22:38:39.539Z,98.70
2017-11-20T22:41:08.568Z,98.40
2017-11-20T22:43:36.817Z,98.40
2017-11-20T22:46:05.827Z,98.30
2017-11-20T22:48:34.093Z,98.20
2017-11-20T22:51:02.337Z,98.40
2017-11-20T22:53:30.584Z,99.20
2017-11-20T22:55:59.077Z,99.00
2017-11-20T22:58:27.320Z,98.80
2017-11-20T23:00:55.569Z,98.70
2017-11-20T23:03:23.837Z,98.70
2017-11-20T23:05:52.071Z,98.20
2017-11-20T23:08:20.308Z,97.90
2017-11-20T23:10:49.352Z,97.30
2017-11-20T23:13:17.603Z,97.30
2017-11-20T23:15:46.056Z,97.50
2017-11-20T23:18:15.388Z,96.50
2017-11-20T23:20:43.627Z,96.50
2017-11-20T23:23:11.868Z,96.50
2017-11-20T23:25:40.141Z,96.60
2017-11-20T23:28:08.386Z,96.30
2017-11-20T23:30:36.637Z,96.10
2017-11-20T23:33:05.670Z,96.80
2017-11-20T23:35:33.907Z,96.80
2017-11-20T23:38:02.188Z,96.10
2017-11-20T23:40:31.743Z,95.80
2017-11-20T23:42:59.997Z,95.80
2017-11-20T23:45:28.264Z,95.70
2017-11-20T23:47:56.569Z,96.50
2017-11-20T23:50:24.828Z,96.80
2017-11-20T23:52:53.068Z,97.20
2017-11-20T23:55:21.344Z,97.70
2017-11-20T23:57:50.360Z,96.40
